sensor_id;sensor_type;location;lat;lon;timestamp;temperature;humidity
10155;DHT22;5118;48.570;7.916;2023-03-01T00:01:24;-1.20;99.90
10155;DHT22;5118;48.570;7.916;2023-03-01T00:03:53;-1.20;99.90
10155;DHT22;5118;48.570;7.916;2023-03-01T00:06:22;-1.20;99.90
10155;DHT22;5118;48.570;7.916;2023-03-01T00:08:51;-1.20;99.90
10155;DHT22;5118;48.570;7.916;2023-03-01T00:11:21;-1.30;99.90
10155;DHT22;5118;48.570;7.916;2023-03-01T00:13:53;-1.30;99.90
10155;DHT22;5118;48.570;7.916;2023-03-01T00:16:24;-1.40;99.90
10155;DHT22;5118;48.570;7.916;2023-03-01T00:18:53;-1.40;99.90
10155;DHT22;5118;48.570;7.916;2023-03-01T00:21:22;-1.40;99.90
10155;DHT22;5118;48.570;7.916;2023-03-01T00:23:52;-1.50;99.90
10155;DHT22;5118;48.570;7.916;2023-03-01T00:26:22;-1.40;99.90
10155;DHT22;5118;48.570;7.916;2023-03-01T00:28:52;-1.40;99.90
10155;DHT22;5118;48.570;7.916;2023-03-01T00:31:24;-1.40;99.90
10155;DHT22;5118;48.570;7.916;2023-03-01T00:33:53;-1.40;99.90
10155;DHT22;5118;48.570;7.916;2023-03-01T00:36:26;-1.50;99.90
10155;DHT22;5118;48.570;7.916;2023-03-01T00:38:55;-1.40;99.90
10155;DHT22;5118;48.570;7.916;2023-03-01T00:41:24;-1.50;99.90
10155;DHT22;5118;48.570;7.916;2023-03-01T00:43:55;-1.50;99.90
10155;DHT22;5118;48.570;7.916;2023-03-01T00:46:26;-1.50;99.90
10155;DHT22;5118;48.570;7.916;2023-03-01T00:48:54;-1.50;99.90
10155;DHT22;5118;48.570;7.916;2023-03-01T00:51:25;-1.50;99.90
10155;DHT22;5118;48.570;7.916;2023-03-01T00:53:58;-1.50;99.90
10155;DHT22;5118;48.570;7.916;2023-03-01T00:56:26;-1.50;99.90
10155;DHT22;5118;48.570;7.916;2023-03-01T00:58:57;-1.50;99.90
10155;DHT22;5118;48.570;7.916;2023-03-01T01:01:26;-1.60;99.90
10155;DHT22;5118;48.570;7.916;2023-03-01T01:03:59;-1.60;99.90
10155;DHT22;5118;48.570;7.916;2023-03-01T01:06:29;-1.60;99.90
10155;DHT22;5118;48.570;7.916;2023-03-01T01:08:59;-1.60;99.90
10155;DHT22;5118;48.570;7.916;2023-03-01T01:11:29;-1.60;99.90
10155;DHT22;5118;48.570;7.916;2023-03-01T01:13:59;-1.60;99.90
10155;DHT22;5118;48.570;7.916;2023-03-01T01:16:29;-1.60;99.90
10155;DHT22;5118;48.570;7.916;2023-03-01T01:18:58;-1.60;99.90
10155;DHT22;5118;48.570;7.916;2023-03-01T01:21:27;-1.60;99.90
10155;DHT22;5118;48.570;7.916;2023-03-01T01:23:56;-1.70;99.90
10155;DHT22;5118;48.570;7.916;2023-03-01T01:26:27;-1.70;99.90
10155;DHT22;5118;48.570;7.916;2023-03-01T01:28:57;-1.70;99.90
10155;DHT22;5118;48.570;7.916;2023-03-01T01:31:27;-1.80;99.90
10155;DHT22;5118;48.570;7.916;2023-03-01T01:33:57;-1.70;99.90
10155;DHT22;5118;48.570;7.916;2023-03-01T01:36:26;-1.70;99.90
10155;DHT22;5118;48.570;7.916;2023-03-01T01:38:55;-1.70;99.90
10155;DHT22;5118;48.570;7.916;2023-03-01T01:41:24;-1.70;99.90
10155;DHT22;5118;48.570;7.916;2023-03-01T01:44:10;-1.70;99.90
10155;DHT22;5118;48.570;7.916;2023-03-01T01:46:41;-1.80;99.90
10155;DHT22;5118;48.570;7.916;2023-03-01T01:49:19;-1.80;99.90
10155;DHT22;5118;48.570;7.916;2023-03-01T01:51:53;-1.90;99.90
10155;DHT22;5118;48.570;7.916;2023-03-01T01:54:25;-2.00;99.90
10155;DHT22;5118;48.570;7.916;2023-03-01T01:56:57;-2.00;99.90
10155;DHT22;5118;48.570;7.916;2023-03-01T01:59:28;-2.00;99.90
10155;DHT22;5118;48.570;7.916;2023-03-01T02:02:00;-2.10;99.90
10155;DHT22;5118;48.570;7.916;2023-03-01T02:04:30;-2.00;99.90
10155;DHT22;5118;48.570;7.916;2023-03-01T02:07:02;-2.00;99.90
10155;DHT22;5118;48.570;7.916;2023-03-01T02:09:33;-2.00;99.90
10155;DHT22;5118;48.570;7.916;2023-03-01T02:12:03;-2.10;99.90
10155;DHT22;5118;48.570;7.916;2023-03-01T02:14:33;-2.00;99.90
10155;DHT22;5118;48.570;7.916;2023-03-01T02:17:02;-2.10;99.90
10155;DHT22;5118;48.570;7.916;2023-03-01T02:19:44;-2.10;99.90
10155;DHT22;5118;48.570;7.916;2023-03-01T02:22:20;-2.20;99.90
10155;DHT22;5118;48.570;7.916;2023-03-01T02:24:57;-2.20;99.90
10155;DHT22;5118;48.570;7.916;2023-03-01T02:27:33;-2.20;99.90
10155;DHT22;5118;48.570;7.916;2023-03-01T02:30:06;-2.30;99.90
10155;DHT22;5118;48.570;7.916;2023-03-01T02:32:35;-2.30;99.90
10155;DHT22;5118;48.570;7.916;2023-03-01T02:35:02;-2.40;99.90
10155;DHT22;5118;48.570;7.916;2023-03-01T02:37:35;-2.40;99.90
10155;DHT22;5118;48.570;7.916;2023-03-01T02:40:07;-2.40;99.90
10155;DHT22;5118;48.570;7.916;2023-03-01T02:42:43;-2.30;99.90
10155;DHT22;5118;48.570;7.916;2023-03-01T02:45:15;-2.30;99.90
10155;DHT22;5118;48.570;7.916;2023-03-01T02:47:43;-2.30;99.90
10155;DHT22;5118;48.570;7.916;2023-03-01T02:50:25;-2.30;99.90
10155;DHT22;5118;48.570;7.916;2023-03-01T02:53:03;-2.30;99.90
10155;DHT22;5118;48.570;7.916;2023-03-01T02:55:35;-2.30;99.90
10155;DHT22;5118;48.570;7.916;2023-03-01T02:58:04;-2.40;99.90
10155;DHT22;5118;48.570;7.916;2023-03-01T03:00:36;-2.40;99.90
10155;DHT22;5118;48.570;7.916;2023-03-01T03:03:07;-2.30;99.90
10155;DHT22;5118;48.570;7.916;2023-03-01T03:05:36;-2.30;99.90
10155;DHT22;5118;48.570;7.916;2023-03-01T03:08:04;-2.30;99.90
10155;DHT22;5118;48.570;7.916;2023-03-01T03:10:38;-2.40;99.90
10155;DHT22;5118;48.570;7.916;2023-03-01T03:13:09;-2.40;99.90
10155;DHT22;5118;48.570;7.916;2023-03-01T03:15:40;-2.40;99.90
10155;DHT22;5118;48.570;7.916;2023-03-01T03:18:12;-2.40;99.90
10155;DHT22;5118;48.570;7.916;2023-03-01T03:20:41;-2.40;99.90
10155;DHT22;5118;48.570;7.916;2023-03-01T03:23:10;-2.40;99.90
10155;DHT22;5118;48.570;7.916;2023-03-01T03:25:39;-2.40;99.90
10155;DHT22;5118;48.570;7.916;2023-03-01T03:28:07;-2.40;99.90
10155;DHT22;5118;48.570;7.916;2023-03-01T03:30:40;-2.40;99.90
10155;DHT22;5118;48.570;7.916;2023-03-01T03:33:09;-2.40;99.90
10155;DHT22;5118;48.570;7.916;2023-03-01T03:35:42;-2.50;99.90
10155;DHT22;5118;48.570;7.916;2023-03-01T03:38:13;-2.60;99.90
10155;DHT22;5118;48.570;7.916;2023-03-01T03:40:46;-2.60;99.90
10155;DHT22;5118;48.570;7.916;2023-03-01T03:43:16;-2.60;99.90
10155;DHT22;5118;48.570;7.916;2023-03-01T03:45:46;-2.60;99.90
10155;DHT22;5118;48.570;7.916;2023-03-01T03:48:15;-2.60;99.90
10155;DHT22;5118;48.570;7.916;2023-03-01T03:50:48;-2.60;99.90
10155;DHT22;5118;48.570;7.916;2023-03-01T03:53:17;-2.60;99.90
10155;DHT22;5118;48.570;7.916;2023-03-01T03:55:46;-2.60;99.90
10155;DHT22;5118;48.570;7.916;2023-03-01T03:58:17;-2.60;99.90
10155;DHT22;5118;48.570;7.916;2023-03-01T04:00:49;-2.60;99.90
10155;DHT22;5118;48.570;7.916;2023-03-01T04:03:19;-2.60;99.90
10155;DHT22;5118;48.570;7.916;2023-03-01T04:05:49;-2.60;99.90
10155;DHT22;5118;48.570;7.916;2023-03-01T04:08:18;-2.60;99.90
10155;DHT22;5118;48.570;7.916;2023-03-01T04:10:49;-2.70;99.90
10155;DHT22;5118;48.570;7.916;2023-03-01T04:13:20;-2.70;99.90
10155;DHT22;5118;48.570;7.916;2023-03-01T04:15:51;-2.80;99.90
10155;DHT22;5118;48.570;7.916;2023-03-01T04:18:20;-2.80;99.90
10155;DHT22;5118;48.570;7.916;2023-03-01T04:20:49;-2.80;99.90
10155;DHT22;5118;48.570;7.916;2023-03-01T04:23:20;-2.80;99.90
10155;DHT22;5118;48.570;7.916;2023-03-01T04:25:50;-2.80;99.90
10155;DHT22;5118;48.570;7.916;2023-03-01T04:28:22;-2.80;99.90
10155;DHT22;5118;48.570;7.916;2023-03-01T04:30:55;-2.80;99.90
10155;DHT22;5118;48.570;7.916;2023-03-01T04:33:23;-2.80;99.90
10155;DHT22;5118;48.570;7.916;2023-03-01T04:35:52;-2.80;99.90
10155;DHT22;5118;48.570;7.916;2023-03-01T04:38:21;-2.80;99.90
10155;DHT22;5118;48.570;7.916;2023-03-01T04:40:49;-2.70;99.90
10155;DHT22;5118;48.570;7.916;2023-03-01T04:43:18;-2.70;99.90
10155;DHT22;5118;48.570;7.916;2023-03-01T04:45:46;-2.70;99.90
10155;DHT22;5118;48.570;7.916;2023-03-01T04:48:15;-2.70;99.90
10155;DHT22;5118;48.570;7.916;2023-03-01T04:50:44;-2.70;99.90
10155;DHT22;5118;48.570;7.916;2023-03-01T04:53:12;-2.70;99.90
10155;DHT22;5118;48.570;7.916;2023-03-01T04:55:40;-2.80;99.90
10155;DHT22;5118;48.570;7.916;2023-03-01T04:58:08;-2.80;99.90
10155;DHT22;5118;48.570;7.916;2023-03-01T05:00:37;-2.90;99.90
10155;DHT22;5118;48.570;7.916;2023-03-01T05:03:05;-2.90;99.90
10155;DHT22;5118;48.570;7.916;2023-03-01T05:05:36;-2.90;99.90
10155;DHT22;5118;48.570;7.916;2023-03-01T05:08:06;-2.90;99.90
10155;DHT22;5118;48.570;7.916;2023-03-01T05:10:36;-2.90;99.90
10155;DHT22;5118;48.570;7.916;2023-03-01T05:13:05;-2.90;99.90
10155;DHT22;5118;48.570;7.916;2023-03-01T05:15:34;-2.80;99.90
10155;DHT22;5118;48.570;7.916;2023-03-01T05:18:03;-2.80;99.90
10155;DHT22;5118;48.570;7.916;2023-03-01T05:20:35;-2.80;99.90
10155;DHT22;5118;48.570;7.916;2023-03-01T05:23:04;-2.80;99.90
10155;DHT22;5118;48.570;7.916;2023-03-01T05:25:34;-2.80;99.90
10155;DHT22;5118;48.570;7.916;2023-03-01T05:28:11;-2.90;99.90
10155;DHT22;5118;48.570;7.916;2023-03-01T05:30:40;-2.90;99.90
10155;DHT22;5118;48.570;7.916;2023-03-01T05:33:09;-2.80;99.90
10155;DHT22;5118;48.570;7.916;2023-03-01T05:35:42;-2.90;99.90
10155;DHT22;5118;48.570;7.916;2023-03-01T05:38:12;-2.80;99.90
10155;DHT22;5118;48.570;7.916;2023-03-01T05:40:41;-2.90;99.90
10155;DHT22;5118;48.570;7.916;2023-03-01T05:43:11;-2.80;99.90
10155;DHT22;5118;48.570;7.916;2023-03-01T05:45:40;-2.80;99.90
10155;DHT22;5118;48.570;7.916;2023-03-01T05:48:09;-2.80;99.90
10155;DHT22;5118;48.570;7.916;2023-03-01T05:50:39;-2.90;99.90
10155;DHT22;5118;48.570;7.916;2023-03-01T05:53:11;-2.90;99.90
10155;DHT22;5118;48.570;7.916;2023-03-01T05:55:40;-2.90;99.90
10155;DHT22;5118;48.570;7.916;2023-03-01T05:58:11;-2.90;99.90
10155;DHT22;5118;48.570;7.916;2023-03-01T06:00:41;-2.80;99.90
10155;DHT22;5118;48.570;7.916;2023-03-01T06:03:10;-2.80;99.90
10155;DHT22;5118;48.570;7.916;2023-03-01T06:05:39;-2.80;99.90
10155;DHT22;5118;48.570;7.916;2023-03-01T06:08:11;-2.80;99.90
10155;DHT22;5118;48.570;7.916;2023-03-01T06:10:39;-2.80;99.90
10155;DHT22;5118;48.570;7.916;2023-03-01T06:13:07;-2.80;99.90
10155;DHT22;5118;48.570;7.916;2023-03-01T06:15:36;-2.80;99.90
10155;DHT22;5118;48.570;7.916;2023-03-01T06:18:04;-2.80;99.90
10155;DHT22;5118;48.570;7.916;2023-03-01T06:20:32;-2.80;99.90
10155;DHT22;5118;48.570;7.916;2023-03-01T06:23:01;-2.80;99.90
10155;DHT22;5118;48.570;7.916;2023-03-01T06:25:31;-2.80;99.90
10155;DHT22;5118;48.570;7.916;2023-03-01T06:27:59;-2.80;99.90
10155;DHT22;5118;48.570;7.916;2023-03-01T06:30:27;-2.80;99.90
10155;DHT22;5118;48.570;7.916;2023-03-01T06:32:56;-2.80;99.90
10155;DHT22;5118;48.570;7.916;2023-03-01T06:35:29;-2.70;99.90
10155;DHT22;5118;48.570;7.916;2023-03-01T06:37:59;-2.70;99.90
10155;DHT22;5118;48.570;7.916;2023-03-01T06:40:28;-2.70;99.90
10155;DHT22;5118;48.570;7.916;2023-03-01T06:42:58;-2.70;99.90
10155;DHT22;5118;48.570;7.916;2023-03-01T06:45:26;-2.60;99.90
10155;DHT22;5118;48.570;7.916;2023-03-01T06:48:01;-2.60;99.90
10155;DHT22;5118;48.570;7.916;2023-03-01T06:50:30;-2.60;99.90
10155;DHT22;5118;48.570;7.916;2023-03-01T06:52:59;-2.60;99.90
10155;DHT22;5118;48.570;7.916;2023-03-01T06:55:28;-2.60;99.90
10155;DHT22;5118;48.570;7.916;2023-03-01T06:57:58;-2.60;99.90
10155;DHT22;5118;48.570;7.916;2023-03-01T07:00:27;-2.50;99.90
10155;DHT22;5118;48.570;7.916;2023-03-01T07:02:58;-2.50;99.90
10155;DHT22;5118;48.570;7.916;2023-03-01T07:05:27;-2.40;99.90
10155;DHT22;5118;48.570;7.916;2023-03-01T07:07:57;-2.30;99.90
10155;DHT22;5118;48.570;7.916;2023-03-01T07:10:26;-2.20;99.90
10155;DHT22;5118;48.570;7.916;2023-03-01T07:12:58;-2.20;99.90
10155;DHT22;5118;48.570;7.916;2023-03-01T07:15:29;-2.10;99.90
10155;DHT22;5118;48.570;7.916;2023-03-01T07:18:16;-2.10;99.90
10155;DHT22;5118;48.570;7.916;2023-03-01T07:20:45;-2.00;99.90
10155;DHT22;5118;48.570;7.916;2023-03-01T07:23:13;-2.00;99.90
10155;DHT22;5118;48.570;7.916;2023-03-01T07:25:42;-1.90;99.90
10155;DHT22;5118;48.570;7.916;2023-03-01T07:28:11;-1.90;99.90
10155;DHT22;5118;48.570;7.916;2023-03-01T07:30:40;-1.80;99.90
10155;DHT22;5118;48.570;7.916;2023-03-01T07:33:08;-1.80;99.90
10155;DHT22;5118;48.570;7.916;2023-03-01T07:35:36;-1.70;99.90
10155;DHT22;5118;48.570;7.916;2023-03-01T07:38:05;-1.70;99.90
10155;DHT22;5118;48.570;7.916;2023-03-01T07:40:33;-1.60;99.90
10155;DHT22;5118;48.570;7.916;2023-03-01T07:43:01;-1.50;99.90
10155;DHT22;5118;48.570;7.916;2023-03-01T07:45:31;-1.40;99.90
10155;DHT22;5118;48.570;7.916;2023-03-01T07:47:59;-1.30;99.90
10155;DHT22;5118;48.570;7.916;2023-03-01T07:50:28;-1.20;99.90
10155;DHT22;5118;48.570;7.916;2023-03-01T07:52:56;-1.10;99.90
10155;DHT22;5118;48.570;7.916;2023-03-01T07:55:24;-1.00;99.90
10155;DHT22;5118;48.570;7.916;2023-03-01T07:57:53;-0.80;99.90
10155;DHT22;5118;48.570;7.916;2023-03-01T08:00:21;-0.70;99.90
10155;DHT22;5118;48.570;7.916;2023-03-01T08:02:51;-0.60;99.90
10155;DHT22;5118;48.570;7.916;2023-03-01T08:05:19;-0.40;99.90
10155;DHT22;5118;48.570;7.916;2023-03-01T08:07:49;-0.30;99.90
10155;DHT22;5118;48.570;7.916;2023-03-01T08:10:18;-0.20;99.90
10155;DHT22;5118;48.570;7.916;2023-03-01T08:12:46;0.00;99.90
10155;DHT22;5118;48.570;7.916;2023-03-01T08:15:14;0.10;99.90
10155;DHT22;5118;48.570;7.916;2023-03-01T08:17:43;0.20;99.90
10155;DHT22;5118;48.570;7.916;2023-03-01T08:20:13;0.30;99.90
10155;DHT22;5118;48.570;7.916;2023-03-01T08:22:41;0.40;99.90
10155;DHT22;5118;48.570;7.916;2023-03-01T08:25:09;0.50;99.90
10155;DHT22;5118;48.570;7.916;2023-03-01T08:27:38;0.60;99.90
10155;DHT22;5118;48.570;7.916;2023-03-01T08:30:07;0.80;99.90
10155;DHT22;5118;48.570;7.916;2023-03-01T08:32:37;0.90;99.90
10155;DHT22;5118;48.570;7.916;2023-03-01T08:35:06;1.10;99.90
10155;DHT22;5118;48.570;7.916;2023-03-01T08:37:39;1.20;99.90
10155;DHT22;5118;48.570;7.916;2023-03-01T08:40:09;1.40;99.90
10155;DHT22;5118;48.570;7.916;2023-03-01T08:42:41;1.50;99.90
10155;DHT22;5118;48.570;7.916;2023-03-01T08:45:11;1.70;99.90
10155;DHT22;5118;48.570;7.916;2023-03-01T08:47:41;1.80;99.90
10155;DHT22;5118;48.570;7.916;2023-03-01T08:50:10;1.90;99.90
10155;DHT22;5118;48.570;7.916;2023-03-01T08:52:39;2.00;99.90
10155;DHT22;5118;48.570;7.916;2023-03-01T08:55:08;2.10;99.90
10155;DHT22;5118;48.570;7.916;2023-03-01T08:57:37;2.20;99.90
10155;DHT22;5118;48.570;7.916;2023-03-01T09:00:06;2.30;99.90
10155;DHT22;5118;48.570;7.916;2023-03-01T09:02:36;2.40;99.90
10155;DHT22;5118;48.570;7.916;2023-03-01T09:05:06;2.50;99.90
10155;DHT22;5118;48.570;7.916;2023-03-01T09:07:34;2.50;99.90
10155;DHT22;5118;48.570;7.916;2023-03-01T09:10:05;2.60;99.90
10155;DHT22;5118;48.570;7.916;2023-03-01T09:12:34;2.60;99.90
10155;DHT22;5118;48.570;7.916;2023-03-01T09:15:03;2.70;99.90
10155;DHT22;5118;48.570;7.916;2023-03-01T09:17:31;2.70;99.90
10155;DHT22;5118;48.570;7.916;2023-03-01T09:20:00;2.80;99.90
10155;DHT22;5118;48.570;7.916;2023-03-01T09:22:28;2.90;99.90
10155;DHT22;5118;48.570;7.916;2023-03-01T09:24:57;3.00;99.90
10155;DHT22;5118;48.570;7.916;2023-03-01T09:27:27;3.10;99.90
10155;DHT22;5118;48.570;7.916;2023-03-01T09:29:55;3.20;99.90
10155;DHT22;5118;48.570;7.916;2023-03-01T09:32:24;3.30;99.90
10155;DHT22;5118;48.570;7.916;2023-03-01T09:34:52;3.40;99.90
10155;DHT22;5118;48.570;7.916;2023-03-01T09:37:32;3.60;99.90
10155;DHT22;5118;48.570;7.916;2023-03-01T09:40:01;3.70;99.90
10155;DHT22;5118;48.570;7.916;2023-03-01T09:42:33;3.70;99.90
10155;DHT22;5118;48.570;7.916;2023-03-01T09:45:05;3.80;99.90
10155;DHT22;5118;48.570;7.916;2023-03-01T09:47:35;4.00;99.90
10155;DHT22;5118;48.570;7.916;2023-03-01T09:50:06;4.00;99.90
10155;DHT22;5118;48.570;7.916;2023-03-01T09:52:40;4.00;99.90
10155;DHT22;5118;48.570;7.916;2023-03-01T09:55:13;4.00;99.90
10155;DHT22;5118;48.570;7.916;2023-03-01T09:57:48;3.90;99.90
10155;DHT22;5118;48.570;7.916;2023-03-01T10:00:28;4.00;99.90
10155;DHT22;5118;48.570;7.916;2023-03-01T10:03:02;4.10;99.90
10155;DHT22;5118;48.570;7.916;2023-03-01T10:05:55;4.10;99.90
10155;DHT22;5118;48.570;7.916;2023-03-01T10:08:31;4.30;99.90
10155;DHT22;5118;48.570;7.916;2023-03-01T10:11:04;4.40;99.90
10155;DHT22;5118;48.570;7.916;2023-03-01T10:13:42;4.60;99.90
10155;DHT22;5118;48.570;7.916;2023-03-01T10:16:16;4.70;99.90
10155;DHT22;5118;48.570;7.916;2023-03-01T10:18:53;4.90;99.90
10155;DHT22;5118;48.570;7.916;2023-03-01T10:21:22;5.00;99.90
10155;DHT22;5118;48.570;7.916;2023-03-01T10:23:52;5.10;99.90
10155;DHT22;5118;48.570;7.916;2023-03-01T10:26:37;5.30;99.90
10155;DHT22;5118;48.570;7.916;2023-03-01T10:29:09;5.40;99.90
10155;DHT22;5118;48.570;7.916;2023-03-01T10:31:43;5.40;99.90
10155;DHT22;5118;48.570;7.916;2023-03-01T10:34:15;5.50;99.90
10155;DHT22;5118;48.570;7.916;2023-03-01T10:36:47;5.50;99.90
10155;DHT22;5118;48.570;7.916;2023-03-01T10:39:18;5.60;99.90
10155;DHT22;5118;48.570;7.916;2023-03-01T10:42:01;5.60;99.90
10155;DHT22;5118;48.570;7.916;2023-03-01T10:44:41;5.70;99.90
10155;DHT22;5118;48.570;7.916;2023-03-01T10:47:19;5.90;99.90
10155;DHT22;5118;48.570;7.916;2023-03-01T10:50:09;6.30;99.90
10155;DHT22;5118;48.570;7.916;2023-03-01T10:52:56;6.90;99.90
10155;DHT22;5118;48.570;7.916;2023-03-01T10:55:30;7.70;99.90
10155;DHT22;5118;48.570;7.916;2023-03-01T10:58:16;8.40;99.90
10155;DHT22;5118;48.570;7.916;2023-03-01T11:00:49;9.10;99.90
10155;DHT22;5118;48.570;7.916;2023-03-01T11:03:22;9.70;99.90
10155;DHT22;5118;48.570;7.916;2023-03-01T11:05:57;10.20;99.90
10155;DHT22;5118;48.570;7.916;2023-03-01T11:08:41;10.70;99.90
10155;DHT22;5118;48.570;7.916;2023-03-01T11:11:23;11.30;99.90
10155;DHT22;5118;48.570;7.916;2023-03-01T11:13:57;11.80;96.60
10155;DHT22;5118;48.570;7.916;2023-03-01T11:16:33;12.20;97.40
10155;DHT22;5118;48.570;7.916;2023-03-01T11:19:18;12.60;95.90
10155;DHT22;5118;48.570;7.916;2023-03-01T11:21:55;12.90;91.20
10155;DHT22;5118;48.570;7.916;2023-03-01T11:24:29;13.00;91.90
10155;DHT22;5118;48.570;7.916;2023-03-01T11:27:00;13.30;92.00
10155;DHT22;5118;48.570;7.916;2023-03-01T11:29:34;13.70;91.20
10155;DHT22;5118;48.570;7.916;2023-03-01T11:32:16;14.20;87.10
10155;DHT22;5118;48.570;7.916;2023-03-01T11:34:49;14.70;84.60
10155;DHT22;5118;48.570;7.916;2023-03-01T11:37:29;15.10;81.10
10155;DHT22;5118;48.570;7.916;2023-03-01T11:40:05;15.50;77.90
10155;DHT22;5118;48.570;7.916;2023-03-01T11:42:50;15.80;74.60
10155;DHT22;5118;48.570;7.916;2023-03-01T11:45:23;16.10;70.20
10155;DHT22;5118;48.570;7.916;2023-03-01T11:48:05;16.00;66.80
10155;DHT22;5118;48.570;7.916;2023-03-01T11:50:40;15.90;61.90
10155;DHT22;5118;48.570;7.916;2023-03-01T11:53:42;15.90;64.30
10155;DHT22;5118;48.570;7.916;2023-03-01T11:56:22;16.20;59.70
10155;DHT22;5118;48.570;7.916;2023-03-01T11:59:22;16.70;63.40
10155;DHT22;5118;48.570;7.916;2023-03-01T12:02:16;17.40;63.50
10155;DHT22;5118;48.570;7.916;2023-03-01T12:05:14;18.10;60.70
10155;DHT22;5118;48.570;7.916;2023-03-01T12:07:50;19.10;53.60
10155;DHT22;5118;48.570;7.916;2023-03-01T12:10:23;19.50;52.80
10155;DHT22;5118;48.570;7.916;2023-03-01T12:13:17;19.90;51.40
10155;DHT22;5118;48.570;7.916;2023-03-01T12:16:09;20.00;50.10
10155;DHT22;5118;48.570;7.916;2023-03-01T12:19:05;20.10;48.30
10155;DHT22;5118;48.570;7.916;2023-03-01T12:21:48;20.30;43.90
10155;DHT22;5118;48.570;7.916;2023-03-01T12:24:35;20.60;44.20
10155;DHT22;5118;48.570;7.916;2023-03-01T12:27:19;20.80;43.50
10155;DHT22;5118;48.570;7.916;2023-03-01T12:29:56;21.10;41.40
10155;DHT22;5118;48.570;7.916;2023-03-01T12:32:47;21.30;38.70
10155;DHT22;5118;48.570;7.916;2023-03-01T12:35:47;21.40;36.60
10155;DHT22;5118;48.570;7.916;2023-03-01T12:38:32;21.50;37.40
10155;DHT22;5118;48.570;7.916;2023-03-01T12:41:19;21.40;37.40
10155;DHT22;5118;48.570;7.916;2023-03-01T12:43:58;21.30;38.00
10155;DHT22;5118;48.570;7.916;2023-03-01T12:46:41;20.90;35.80
10155;DHT22;5118;48.570;7.916;2023-03-01T12:49:17;20.60;35.70
10155;DHT22;5118;48.570;7.916;2023-03-01T12:51:54;20.40;37.40
10155;DHT22;5118;48.570;7.916;2023-03-01T12:54:29;20.60;37.80
10155;DHT22;5118;48.570;7.916;2023-03-01T12:57:03;20.90;37.30
10155;DHT22;5118;48.570;7.916;2023-03-01T12:59:40;21.30;37.90
10155;DHT22;5118;48.570;7.916;2023-03-01T13:02:19;21.50;35.80
10155;DHT22;5118;48.570;7.916;2023-03-01T13:05:00;21.30;34.20
10155;DHT22;5118;48.570;7.916;2023-03-01T13:07:37;21.20;35.00
10155;DHT22;5118;48.570;7.916;2023-03-01T13:10:24;21.30;36.10
10155;DHT22;5118;48.570;7.916;2023-03-01T13:13:08;21.60;33.70
10155;DHT22;5118;48.570;7.916;2023-03-01T13:15:40;21.80;33.80
10155;DHT22;5118;48.570;7.916;2023-03-01T13:18:30;22.00;34.50
10155;DHT22;5118;48.570;7.916;2023-03-01T13:21:01;22.00;32.70
10155;DHT22;5118;48.570;7.916;2023-03-01T13:23:36;22.10;33.20
10155;DHT22;5118;48.570;7.916;2023-03-01T13:26:09;21.90;33.10
10155;DHT22;5118;48.570;7.916;2023-03-01T13:28:53;22.00;33.40
10155;DHT22;5118;48.570;7.916;2023-03-01T13:34:49;22.60;29.40
10155;DHT22;5118;48.570;7.916;2023-03-01T13:37:35;22.40;29.50
10155;DHT22;5118;48.570;7.916;2023-03-01T13:43:31;22.10;31.10
10155;DHT22;5118;48.570;7.916;2023-03-01T13:46:07;21.90;29.50
10155;DHT22;5118;48.570;7.916;2023-03-01T13:48:37;21.60;30.20
10155;DHT22;5118;48.570;7.916;2023-03-01T13:51:09;21.10;31.00
10155;DHT22;5118;48.570;7.916;2023-03-01T13:53:41;21.10;31.70
10155;DHT22;5118;48.570;7.916;2023-03-01T13:56:12;21.20;31.30
10155;DHT22;5118;48.570;7.916;2023-03-01T13:58:50;21.50;31.70
10155;DHT22;5118;48.570;7.916;2023-03-01T14:01:27;22.00;31.50
10155;DHT22;5118;48.570;7.916;2023-03-01T14:03:58;22.10;29.60
10155;DHT22;5118;48.570;7.916;2023-03-01T14:06:29;22.10;30.10
10155;DHT22;5118;48.570;7.916;2023-03-01T14:09:04;22.10;30.20
10155;DHT22;5118;48.570;7.916;2023-03-01T14:12:02;22.30;29.30
10155;DHT22;5118;48.570;7.916;2023-03-01T14:14:48;22.60;28.40
10155;DHT22;5118;48.570;7.916;2023-03-01T14:17:47;22.60;29.20
10155;DHT22;5118;48.570;7.916;2023-03-01T14:20:19;22.30;27.80
10155;DHT22;5118;48.570;7.916;2023-03-01T14:22:50;22.10;29.00
10155;DHT22;5118;48.570;7.916;2023-03-01T14:25:26;22.00;29.50
10155;DHT22;5118;48.570;7.916;2023-03-01T14:28:02;22.10;29.60
10155;DHT22;5118;48.570;7.916;2023-03-01T14:30:36;22.50;29.30
10155;DHT22;5118;48.570;7.916;2023-03-01T14:33:18;22.70;28.90
10155;DHT22;5118;48.570;7.916;2023-03-01T14:35:56;22.70;27.90
10155;DHT22;5118;48.570;7.916;2023-03-01T14:38:31;22.60;27.80
10155;DHT22;5118;48.570;7.916;2023-03-01T14:41:06;22.70;27.90
10155;DHT22;5118;48.570;7.916;2023-03-01T14:43:35;22.80;28.40
10155;DHT22;5118;48.570;7.916;2023-03-01T14:46:05;22.60;28.80
10155;DHT22;5118;48.570;7.916;2023-03-01T14:48:33;22.40;28.50
10155;DHT22;5118;48.570;7.916;2023-03-01T14:51:04;22.30;28.50
10155;DHT22;5118;48.570;7.916;2023-03-01T14:53:33;22.40;28.80
10155;DHT22;5118;48.570;7.916;2023-03-01T14:56:17;22.50;28.80
10155;DHT22;5118;48.570;7.916;2023-03-01T14:58:46;22.20;28.50
10155;DHT22;5118;48.570;7.916;2023-03-01T15:01:20;21.70;28.30
10155;DHT22;5118;48.570;7.916;2023-03-01T15:03:50;21.50;28.60
10155;DHT22;5118;48.570;7.916;2023-03-01T15:06:21;21.50;28.50
10155;DHT22;5118;48.570;7.916;2023-03-01T15:08:51;21.40;28.30
10155;DHT22;5118;48.570;7.916;2023-03-01T15:11:22;21.10;28.60
10155;DHT22;5118;48.570;7.916;2023-03-01T15:13:52;20.80;28.60
10155;DHT22;5118;48.570;7.916;2023-03-01T15:16:25;20.50;28.60
10155;DHT22;5118;48.570;7.916;2023-03-01T15:18:55;20.50;28.70
10155;DHT22;5118;48.570;7.916;2023-03-01T15:21:26;20.40;28.60
10155;DHT22;5118;48.570;7.916;2023-03-01T15:23:59;20.00;28.80
10155;DHT22;5118;48.570;7.916;2023-03-01T15:26:30;19.80;29.10
10155;DHT22;5118;48.570;7.916;2023-03-01T15:29:00;19.70;29.20
10155;DHT22;5118;48.570;7.916;2023-03-01T15:31:33;19.60;29.20
10155;DHT22;5118;48.570;7.916;2023-03-01T15:34:11;19.50;29.20
10155;DHT22;5118;48.570;7.916;2023-03-01T15:36:48;19.40;29.50
10155;DHT22;5118;48.570;7.916;2023-03-01T15:39:30;19.30;29.40
10155;DHT22;5118;48.570;7.916;2023-03-01T15:42:00;19.00;29.70
10155;DHT22;5118;48.570;7.916;2023-03-01T15:44:29;18.80;29.80
10155;DHT22;5118;48.570;7.916;2023-03-01T15:47:23;18.40;29.90
10155;DHT22;5118;48.570;7.916;2023-03-01T15:49:53;18.10;29.80
10155;DHT22;5118;48.570;7.916;2023-03-01T15:52:25;18.00;30.20
10155;DHT22;5118;48.570;7.916;2023-03-01T15:54:58;17.90;30.10
10155;DHT22;5118;48.570;7.916;2023-03-01T15:57:27;17.70;30.40
10155;DHT22;5118;48.570;7.916;2023-03-01T15:59:55;17.50;30.60
10155;DHT22;5118;48.570;7.916;2023-03-01T16:02:25;17.30;30.70
10155;DHT22;5118;48.570;7.916;2023-03-01T16:04:54;17.20;30.80
10155;DHT22;5118;48.570;7.916;2023-03-01T16:07:23;17.10;31.20
10155;DHT22;5118;48.570;7.916;2023-03-01T16:09:54;16.90;31.20
10155;DHT22;5118;48.570;7.916;2023-03-01T16:12:23;16.60;31.30
10155;DHT22;5118;48.570;7.916;2023-03-01T16:14:52;16.30;31.80
10155;DHT22;5118;48.570;7.916;2023-03-01T16:17:21;15.90;32.40
10155;DHT22;5118;48.570;7.916;2023-03-01T16:19:50;15.30;32.30
10155;DHT22;5118;48.570;7.916;2023-03-01T16:22:22;14.80;32.80
10155;DHT22;5118;48.570;7.916;2023-03-01T16:24:52;14.50;33.40
10155;DHT22;5118;48.570;7.916;2023-03-01T16:27:20;14.20;33.70
10155;DHT22;5118;48.570;7.916;2023-03-01T16:29:49;13.70;34.00
10155;DHT22;5118;48.570;7.916;2023-03-01T16:32:20;13.10;34.60